Guia — 9HB2060 — position and weather

sailwx.info

Track history (hours):
 
Tides and Currents Weather Stations Pressure Air Temp Water Temp Dewpoint Dewpoint Depression Visibility Wind Speed Wind Dir Waves Ship Positions

Guia

Last reported at 2016-Aug-08 17:08 UTC. Time now 2016-Aug-30 07:27 UTC.
Position N 37°25' E 025°19'.
Warning: this ship's position is 21 days out of date.

Length 27 m.

Type: Other ship. MMSI: 248765000.

Date/timePositionNaut miles runAvg speedWind from/ knotsBaromVisibWave heightAir tempDewpointWater temp
2016-Aug-08 17:08N 37°25' E 025°19'0 0.0
2016-Aug-08 16:33N 37°25' E 025°19'0 0.0
2016-Aug-08 15:18N 37°25' E 025°19'0 0.1
2016-Aug-08 14:29N 37°25' E 025°19'5 4.0
2016-Aug-08 13:16N 37°26' E 025°25'0 0.0
2016-Aug-08 11:32N 37°26' E 025°25'0 0.0
2016-Aug-08 10:23N 37°26' E 025°25'5 1.6
2016-Aug-08 07:19N 37°25' E 025°19'0 0.0
2016-Aug-08 06:29N 37°25' E 025°19'2 1.6
2016-Aug-08 05:33N 37°23' E 025°19'9 8.3
2016-Aug-08 04:30N 37°15' E 025°17'7 0.4
2016-Aug-07 09:14N 37°08' E 025°14'8 1.6
2016-Aug-07 04:23N 37°01' E 025°16'  
Track history (hours):
 
Tides and Currents Weather Stations Pressure Air Temp Water Temp Dewpoint Dewpoint Depression Visibility Wind Speed Wind Dir Waves Ship Positions

Guia

Last reported at 2016-Aug-08 17:08 UTC. Time now 2016-Aug-30 07:27 UTC.
Position N 37°25' E 025°19'.
Warning: this ship's position is 21 days out of date.

Length 27 m.

Type: Other ship. MMSI: 248765000.

Date/timePositionNaut miles runAvg speedWind from/ knotsBaromVisibWave heightAir tempDewpointWater temp
2016-Aug-08 17:08N 37°25' E 025°19'0 0.0
2016-Aug-08 16:33N 37°25' E 025°19'0 0.0
2016-Aug-08 15:18N 37°25' E 025°19'0 0.1
2016-Aug-08 14:29N 37°25' E 025°19'5 4.0
2016-Aug-08 13:16N 37°26' E 025°25'0 0.0
2016-Aug-08 11:32N 37°26' E 025°25'0 0.0
2016-Aug-08 10:23N 37°26' E 025°25'5 1.6
2016-Aug-08 07:19N 37°25' E 025°19'0 0.0
2016-Aug-08 06:29N 37°25' E 025°19'2 1.6
2016-Aug-08 05:33N 37°23' E 025°19'9 8.3
2016-Aug-08 04:30N 37°15' E 025°17'7 0.4
2016-Aug-07 09:14N 37°08' E 025°14'8 1.6
2016-Aug-07 04:23N 37°01' E 025°16'  

Dump ship's entire track history